Wheatland, ND (58079)

6:06 AM CST on January 20, 2017 (GMT -0600)
Home of the Absaraka Crows | | Change Station

Elev 1066 ft 46.98 °N, 97.39 °W | Updated 9 seconds ago

Overcast
Overcast
33.8 °F
Feels Like 30 °F
N
3.8
Wind Variable Wind from SE
Gusts 6.0 mph

Today
High -- | Low -- °F
--% Chance of Precip.
Yesterday
High -- | Low -- °F
Precip. -- in
Pressure 29.54 in
Visibility 6.0 miles
Clouds Overcast 1700 ft
Windchill 30 °F
Dew Point 34 °F
Humidity 99%
Rainfall 0.00 in
Snow Depth Not available.
8:06 AM 5:15 PM
Last Quarter, 45% visible
METAR KFAR 201153Z 14008KT 6SM HZ OVC017 10/02 A2952 RMK AO2 SLP002 T01000022 10100 20083 56013
Pressure 29.54 in
Visibility 6.0 miles
Clouds Overcast 1700 ft
Windchill 30 °F
Dew Point 34 °F
Humidity 99%
Rainfall 0.00 in
Snow Depth Not available.
8:06 AM 5:15 PM
Last Quarter, 45% visible
METAR KFAR 201153Z 14008KT 6SM HZ OVC017 10/02 A2952 RMK AO2 SLP002 T01000022 10100 20083 56013

Get Your Daily Forecast Email!

Thanks for signing up!

Be on the lookout for a verification email in your inbox.

You'll start receiving the daily forecast at 8 AM.

×

10-Day Weather Forecast

Almanac

Astronomy

Jan. 20, 2017 Rise Set
Actual Time
Civil Twilight
Nautical Twilight
Astronomical Twilight
Moon
Length of Visible Light
Length of Day
Tomorrow will be .
, % of the Moon is Illuminated

Today's Extremes

State Highs State Lows

Community

WunderPhotos

Upload Photos

1,962,540 photos uploaded!

WunderBlog® & News

Nearby

Air Quality

  Air Quality AQ Index Pollutant
Not available.

Snow Depth

Station Depth Elevation

Earthquake Activity

City Distance Mag. Time & Date
Minimum magnitude displayed is 2.5.

Coastal Water Temperatures

Place Temperature

Stations

Nearby Weather Stations

Station Location Temp. Windchill Dew Point Humidity Wind Precip. Elev Updated Type
                   

Watches & Warnings

There are currently no watches in effect.